sensor_id;sensor_type;location;lat;lon;timestamp;pressure;altitude;pressure_sealevel;temperature;humidity
42411;BME280;28056;51.112;0.984;2023-02-22T00:00:47;100402.47;;;10.35;58.39
42411;BME280;28056;51.112;0.984;2023-02-22T00:03:17;100400.32;;;10.43;60.06
42411;BME280;28056;51.112;0.984;2023-02-22T00:05:46;100398.57;;;10.46;62.42
42411;BME280;28056;51.112;0.984;2023-02-22T00:08:14;100395.79;;;10.53;58.08
42411;BME280;28056;51.112;0.984;2023-02-22T00:10:43;100401.62;;;10.71;60.53
42411;BME280;28056;51.112;0.984;2023-02-22T00:13:12;100402.22;;;10.65;62.27
42411;BME280;28056;51.112;0.984;2023-02-22T00:15:40;100407.67;;;10.31;62.18
42411;BME280;28056;51.112;0.984;2023-02-22T00:18:10;100403.67;;;10.66;58.20
42411;BME280;28056;51.112;0.984;2023-02-22T00:20:39;100402.02;;;10.63;61.18
42411;BME280;28056;51.112;0.984;2023-02-22T00:23:11;100401.02;;;10.74;60.82
42411;BME280;28056;51.112;0.984;2023-02-22T00:25:39;100398.83;;;10.71;58.23
42411;BME280;28056;51.112;0.984;2023-02-22T00:28:06;100401.79;;;10.65;60.05
42411;BME280;28056;51.112;0.984;2023-02-22T00:30:33;100401.82;;;10.58;61.15
42411;BME280;28056;51.112;0.984;2023-02-22T00:33:01;100400.28;;;10.30;59.91
42411;BME280;28056;51.112;0.984;2023-02-22T00:35:29;100389.73;;;10.31;58.87
42411;BME280;28056;51.112;0.984;2023-02-22T00:37:59;100378.86;;;10.48;59.19
42411;BME280;28056;51.112;0.984;2023-02-22T00:40:28;100380.02;;;10.57;59.66
42411;BME280;28056;51.112;0.984;2023-02-22T00:42:56;100380.11;;;10.58;60.33
42411;BME280;28056;51.112;0.984;2023-02-22T00:45:26;100376.58;;;10.44;60.78
42411;BME280;28056;51.112;0.984;2023-02-22T00:47:53;100368.38;;;10.09;60.43
42411;BME280;28056;51.112;0.984;2023-02-22T00:50:22;100369.45;;;10.20;60.56
42411;BME280;28056;51.112;0.984;2023-02-22T00:52:51;100360.00;;;10.12;60.46
42411;BME280;28056;51.112;0.984;2023-02-22T00:55:20;100368.16;;;10.37;61.57
42411;BME280;28056;51.112;0.984;2023-02-22T00:57:48;100363.98;;;10.58;59.88
42411;BME280;28056;51.112;0.984;2023-02-22T01:00:19;100368.11;;;10.66;60.06
42411;BME280;28056;51.112;0.984;2023-02-22T01:04:48;100358.16;;;10.84;60.99
42411;BME280;28056;51.112;0.984;2023-02-22T01:07:15;100358.89;;;11.07;59.09
42411;BME280;28056;51.112;0.984;2023-02-22T01:09:43;100364.59;;;11.02;60.55
42411;BME280;28056;51.112;0.984;2023-02-22T01:12:10;100359.64;;;10.89;59.20
42411;BME280;28056;51.112;0.984;2023-02-22T01:14:39;100355.78;;;10.89;60.32
42411;BME280;28056;51.112;0.984;2023-02-22T01:17:07;100352.79;;;10.93;60.52
42411;BME280;28056;51.112;0.984;2023-02-22T01:19:34;100350.03;;;10.83;60.93
42411;BME280;28056;51.112;0.984;2023-02-22T01:22:01;100343.58;;;10.59;59.24
42411;BME280;28056;51.112;0.984;2023-02-22T01:24:29;100342.98;;;10.98;60.47
42411;BME280;28056;51.112;0.984;2023-02-22T01:26:56;100334.62;;;10.68;60.69
42411;BME280;28056;51.112;0.984;2023-02-22T01:29:24;100336.87;;;10.75;59.96
42411;BME280;28056;51.112;0.984;2023-02-22T01:31:53;100330.56;;;10.64;60.18
42411;BME280;28056;51.112;0.984;2023-02-22T01:34:22;100329.74;;;10.96;59.59
42411;BME280;28056;51.112;0.984;2023-02-22T01:36:51;100326.66;;;10.94;58.23
42411;BME280;28056;51.112;0.984;2023-02-22T01:39:18;100321.90;;;10.77;57.54
42411;BME280;28056;51.112;0.984;2023-02-22T01:41:45;100327.47;;;11.06;58.91
42411;BME280;28056;51.112;0.984;2023-02-22T01:44:26;100321.10;;;11.17;60.33
42411;BME280;28056;51.112;0.984;2023-02-22T01:46:54;100318.93;;;11.09;60.05
42411;BME280;28056;51.112;0.984;2023-02-22T01:49:23;100315.82;;;11.40;58.34
42411;BME280;28056;51.112;0.984;2023-02-22T01:51:54;100309.48;;;11.31;59.71
42411;BME280;28056;51.112;0.984;2023-02-22T01:54:25;100309.56;;;11.56;60.60
42411;BME280;28056;51.112;0.984;2023-02-22T01:56:59;100303.57;;;11.38;59.98
42411;BME280;28056;51.112;0.984;2023-02-22T01:59:30;100299.50;;;11.46;59.48
42411;BME280;28056;51.112;0.984;2023-02-22T02:01:59;100296.51;;;11.61;60.90
42411;BME280;28056;51.112;0.984;2023-02-22T02:04:28;100296.37;;;11.79;60.16
42411;BME280;28056;51.112;0.984;2023-02-22T02:06:59;100292.43;;;11.37;58.83
42411;BME280;28056;51.112;0.984;2023-02-22T02:09:32;100294.14;;;11.73;62.04
42411;BME280;28056;51.112;0.984;2023-02-22T02:12:02;100285.49;;;11.85;59.84
42411;BME280;28056;51.112;0.984;2023-02-22T02:14:31;100284.84;;;11.90;59.80
42411;BME280;28056;51.112;0.984;2023-02-22T02:17:00;100287.56;;;11.94;60.97
42411;BME280;28056;51.112;0.984;2023-02-22T02:19:37;100285.59;;;11.91;59.02
42411;BME280;28056;51.112;0.984;2023-02-22T02:22:18;100282.68;;;12.03;59.39
42411;BME280;28056;51.112;0.984;2023-02-22T02:27:17;100279.43;;;12.24;59.98
42411;BME280;28056;51.112;0.984;2023-02-22T02:32:09;100266.53;;;12.21;58.33
42411;BME280;28056;51.112;0.984;2023-02-22T02:34:48;100267.15;;;11.47;60.93
42411;BME280;28056;51.112;0.984;2023-02-22T02:37:22;100262.80;;;12.05;56.99
42411;BME280;28056;51.112;0.984;2023-02-22T02:39:56;100262.88;;;12.09;58.57
42411;BME280;28056;51.112;0.984;2023-02-22T02:42:31;100261.83;;;12.23;60.08
42411;BME280;28056;51.112;0.984;2023-02-22T02:45:06;100260.67;;;11.51;59.01
42411;BME280;28056;51.112;0.984;2023-02-22T02:47:37;100254.77;;;11.95;58.11
42411;BME280;28056;51.112;0.984;2023-02-22T02:50:10;100253.06;;;11.52;59.52
42411;BME280;28056;51.112;0.984;2023-02-22T02:52:41;100242.14;;;11.94;58.48
42411;BME280;28056;51.112;0.984;2023-02-22T02:55:10;100237.93;;;11.69;58.78
42411;BME280;28056;51.112;0.984;2023-02-22T02:57:39;100235.95;;;11.91;59.82
42411;BME280;28056;51.112;0.984;2023-02-22T03:00:16;100234.55;;;11.44;57.83
42411;BME280;28056;51.112;0.984;2023-02-22T03:02:58;100232.78;;;11.80;58.81
42411;BME280;28056;51.112;0.984;2023-02-22T03:05:42;100228.70;;;11.92;58.86
42411;BME280;28056;51.112;0.984;2023-02-22T03:08:19;100228.68;;;12.01;59.25
42411;BME280;28056;51.112;0.984;2023-02-22T03:10:57;100227.62;;;11.99;58.76
42411;BME280;28056;51.112;0.984;2023-02-22T03:13:31;100222.39;;;12.05;58.27
42411;BME280;28056;51.112;0.984;2023-02-22T03:16:07;100221.45;;;11.95;58.86
42411;BME280;28056;51.112;0.984;2023-02-22T03:18:48;100217.77;;;11.46;58.44
42411;BME280;28056;51.112;0.984;2023-02-22T03:21:24;100214.18;;;11.95;59.85
42411;BME280;28056;51.112;0.984;2023-02-22T03:24:02;100214.32;;;12.09;57.39
42411;BME280;28056;51.112;0.984;2023-02-22T03:26:36;100213.01;;;12.04;58.57
42411;BME280;28056;51.112;0.984;2023-02-22T03:29:10;100208.83;;;12.09;59.71
42411;BME280;28056;51.112;0.984;2023-02-22T03:31:41;100207.05;;;12.10;56.75
42411;BME280;28056;51.112;0.984;2023-02-22T03:34:14;100205.90;;;12.10;57.87
42411;BME280;28056;51.112;0.984;2023-02-22T03:36:46;100202.68;;;11.79;58.08
42411;BME280;28056;51.112;0.984;2023-02-22T03:39:17;100198.31;;;12.05;58.39
42411;BME280;28056;51.112;0.984;2023-02-22T03:41:48;100197.62;;;12.03;59.89
42411;BME280;28056;51.112;0.984;2023-02-22T03:44:22;100192.84;;;12.15;59.30
42411;BME280;28056;51.112;0.984;2023-02-22T03:46:54;100191.08;;;12.05;57.48
42411;BME280;28056;51.112;0.984;2023-02-22T03:49:28;100188.09;;;11.41;58.44
42411;BME280;28056;51.112;0.984;2023-02-22T03:51:59;100181.50;;;11.87;59.31
42411;BME280;28056;51.112;0.984;2023-02-22T03:54:28;100183.20;;;11.89;59.18
42411;BME280;28056;51.112;0.984;2023-02-22T03:56:59;100178.39;;;12.03;57.37
42411;BME280;28056;51.112;0.984;2023-02-22T03:59:31;100173.26;;;12.19;56.73
42411;BME280;28056;51.112;0.984;2023-02-22T04:01:58;100170.27;;;12.05;59.37
42411;BME280;28056;51.112;0.984;2023-02-22T04:04:26;100168.66;;;11.99;57.74
42411;BME280;28056;51.112;0.984;2023-02-22T04:06:53;100169.33;;;11.96;58.48
42411;BME280;28056;51.112;0.984;2023-02-22T04:09:20;100170.01;;;11.95;59.36
42411;BME280;28056;51.112;0.984;2023-02-22T04:11:47;100170.20;;;11.87;59.83
42411;BME280;28056;51.112;0.984;2023-02-22T04:14:15;100164.71;;;12.05;59.62
42411;BME280;28056;51.112;0.984;2023-02-22T04:16:43;100159.96;;;12.11;60.63
42411;BME280;28056;51.112;0.984;2023-02-22T04:19:11;100155.45;;;12.12;60.59
42411;BME280;28056;51.112;0.984;2023-02-22T04:21:39;100156.84;;;11.87;58.77
42411;BME280;28056;51.112;0.984;2023-02-22T04:24:07;100154.44;;;12.29;60.62
42411;BME280;28056;51.112;0.984;2023-02-22T04:26:34;100148.44;;;12.18;57.52
42411;BME280;28056;51.112;0.984;2023-02-22T04:29:02;100145.71;;;12.39;60.11
42411;BME280;28056;51.112;0.984;2023-02-22T04:31:30;100143.28;;;12.43;59.39
42411;BME280;28056;51.112;0.984;2023-02-22T04:33:58;100144.63;;;12.12;61.34
42411;BME280;28056;51.112;0.984;2023-02-22T04:36:26;100141.67;;;12.22;61.70
42411;BME280;28056;51.112;0.984;2023-02-22T04:38:53;100138.24;;;11.82;58.74
42411;BME280;28056;51.112;0.984;2023-02-22T04:41:21;100142.37;;;12.19;61.05
42411;BME280;28056;51.112;0.984;2023-02-22T04:43:48;100149.21;;;12.18;58.49
42411;BME280;28056;51.112;0.984;2023-02-22T04:46:16;100151.25;;;12.04;60.22
42411;BME280;28056;51.112;0.984;2023-02-22T04:48:43;100146.08;;;12.02;60.00
42411;BME280;28056;51.112;0.984;2023-02-22T04:51:11;100146.26;;;11.94;61.63
42411;BME280;28056;51.112;0.984;2023-02-22T04:53:38;100135.35;;;12.20;60.55
42411;BME280;28056;51.112;0.984;2023-02-22T04:56:06;100139.53;;;11.89;61.58
42411;BME280;28056;51.112;0.984;2023-02-22T04:58:33;100148.18;;;11.89;60.85
42411;BME280;28056;51.112;0.984;2023-02-22T05:01:00;100158.33;;;12.21;56.27
42411;BME280;28056;51.112;0.984;2023-02-22T05:03:28;100163.75;;;12.30;59.35
42411;BME280;28056;51.112;0.984;2023-02-22T05:05:55;100163.18;;;12.16;56.96
42411;BME280;28056;51.112;0.984;2023-02-22T05:08:23;100163.98;;;11.49;60.89
42411;BME280;28056;51.112;0.984;2023-02-22T05:10:50;100161.97;;;11.69;58.99
42411;BME280;28056;51.112;0.984;2023-02-22T05:13:17;100163.33;;;11.81;59.74
42411;BME280;28056;51.112;0.984;2023-02-22T05:15:45;100163.80;;;11.80;60.93
42411;BME280;28056;51.112;0.984;2023-02-22T05:18:13;100166.58;;;11.78;61.77
42411;BME280;28056;51.112;0.984;2023-02-22T05:20:40;100163.67;;;11.87;60.20
42411;BME280;28056;51.112;0.984;2023-02-22T05:23:08;100162.20;;;11.79;62.12
42411;BME280;28056;51.112;0.984;2023-02-22T05:25:36;100154.80;;;11.84;60.97
42411;BME280;28056;51.112;0.984;2023-02-22T05:28:08;100150.42;;;11.93;58.19
42411;BME280;28056;51.112;0.984;2023-02-22T05:30:37;100148.11;;;11.95;59.35
42411;BME280;28056;51.112;0.984;2023-02-22T05:33:04;100144.94;;;11.95;61.19
42411;BME280;28056;51.112;0.984;2023-02-22T05:35:32;100149.13;;;12.20;58.99
42411;BME280;28056;51.112;0.984;2023-02-22T05:37:59;100143.98;;;12.21;60.03
42411;BME280;28056;51.112;0.984;2023-02-22T05:40:27;100144.36;;;12.01;55.18
42411;BME280;28056;51.112;0.984;2023-02-22T05:42:56;100144.85;;;11.89;56.59
42411;BME280;28056;51.112;0.984;2023-02-22T05:45:26;100142.35;;;12.03;57.97
42411;BME280;28056;51.112;0.984;2023-02-22T05:47:54;100140.30;;;12.03;59.08
42411;BME280;28056;51.112;0.984;2023-02-22T05:50:22;100139.13;;;12.05;58.84
42411;BME280;28056;51.112;0.984;2023-02-22T05:52:50;100142.64;;;12.10;57.91
42411;BME280;28056;51.112;0.984;2023-02-22T05:55:20;100145.07;;;12.13;63.17
42411;BME280;28056;51.112;0.984;2023-02-22T05:57:48;100148.06;;;12.16;64.68
42411;BME280;28056;51.112;0.984;2023-02-22T06:00:18;100144.64;;;12.26;62.49
42411;BME280;28056;51.112;0.984;2023-02-22T06:02:46;100143.46;;;12.10;60.63
42411;BME280;28056;51.112;0.984;2023-02-22T06:05:13;100142.81;;;11.62;63.87
42411;BME280;28056;51.112;0.984;2023-02-22T06:07:40;100144.20;;;11.92;60.94
42411;BME280;28056;51.112;0.984;2023-02-22T06:10:08;100143.32;;;12.20;60.04
42411;BME280;28056;51.112;0.984;2023-02-22T06:12:35;100147.93;;;11.74;64.02
42411;BME280;28056;51.112;0.984;2023-02-22T06:15:03;100146.00;;;11.35;61.18
42411;BME280;28056;51.112;0.984;2023-02-22T06:17:30;100144.37;;;10.72;59.07
42411;BME280;28056;51.112;0.984;2023-02-22T06:19:57;100143.14;;;11.36;58.63
42411;BME280;28056;51.112;0.984;2023-02-22T06:22:25;100142.23;;;11.55;58.95
42411;BME280;28056;51.112;0.984;2023-02-22T06:24:52;100140.47;;;11.88;58.21
42411;BME280;28056;51.112;0.984;2023-02-22T06:27:19;100142.79;;;11.90;58.73
42411;BME280;28056;51.112;0.984;2023-02-22T06:29:47;100145.05;;;11.79;58.64
42411;BME280;28056;51.112;0.984;2023-02-22T06:32:15;100148.03;;;12.03;59.05
42411;BME280;28056;51.112;0.984;2023-02-22T06:34:42;100152.37;;;12.20;59.39
42411;BME280;28056;51.112;0.984;2023-02-22T06:37:10;100158.80;;;12.17;59.94
42411;BME280;28056;51.112;0.984;2023-02-22T06:39:37;100162.04;;;11.98;56.18
42411;BME280;28056;51.112;0.984;2023-02-22T06:42:05;100165.47;;;12.02;61.65
42411;BME280;28056;51.112;0.984;2023-02-22T06:44:32;100170.26;;;10.91;57.58
42411;BME280;28056;51.112;0.984;2023-02-22T06:47:00;100171.57;;;10.81;59.89
42411;BME280;28056;51.112;0.984;2023-02-22T06:49:27;100171.92;;;9.20;59.38
42411;BME280;28056;51.112;0.984;2023-02-22T06:51:55;100168.73;;;8.89;59.95
42411;BME280;28056;51.112;0.984;2023-02-22T06:54:22;100170.10;;;8.91;60.75
42411;BME280;28056;51.112;0.984;2023-02-22T06:56:50;100170.71;;;8.79;61.34
42411;BME280;28056;51.112;0.984;2023-02-22T06:59:17;100165.48;;;8.40;61.73
42411;BME280;28056;51.112;0.984;2023-02-22T07:01:45;100161.02;;;7.60;64.07
42411;BME280;28056;51.112;0.984;2023-02-22T07:04:13;100164.71;;;5.93;71.08
42411;BME280;28056;51.112;0.984;2023-02-22T07:06:44;100165.25;;;5.95;73.24
42411;BME280;28056;51.112;0.984;2023-02-22T07:09:11;100156.64;;;5.24;75.90
42411;BME280;28056;51.112;0.984;2023-02-22T07:11:39;100156.96;;;4.90;78.42
42411;BME280;28056;51.112;0.984;2023-02-22T07:14:06;100156.57;;;4.55;80.83
42411;BME280;28056;51.112;0.984;2023-02-22T07:16:33;100157.74;;;4.43;82.35
42411;BME280;28056;51.112;0.984;2023-02-22T07:19:01;100166.27;;;4.27;83.62
42411;BME280;28056;51.112;0.984;2023-02-22T07:21:29;100173.53;;;3.85;86.05
42411;BME280;28056;51.112;0.984;2023-02-22T07:23:57;100178.30;;;4.30;85.66
42411;BME280;28056;51.112;0.984;2023-02-22T07:26:25;100185.80;;;4.74;85.17
42411;BME280;28056;51.112;0.984;2023-02-22T07:28:52;100195.88;;;4.80;83.70
42411;BME280;28056;51.112;0.984;2023-02-22T07:31:20;100195.04;;;4.82;83.80
42411;BME280;28056;51.112;0.984;2023-02-22T07:33:47;100192.27;;;4.52;84.87
42411;BME280;28056;51.112;0.984;2023-02-22T07:36:15;100189.87;;;4.59;84.72
42411;BME280;28056;51.112;0.984;2023-02-22T07:38:43;100192.85;;;4.36;84.90
42411;BME280;28056;51.112;0.984;2023-02-22T07:41:10;100197.73;;;4.38;85.40
42411;BME280;28056;51.112;0.984;2023-02-22T07:43:38;100203.32;;;3.72;88.11
42411;BME280;28056;51.112;0.984;2023-02-22T07:46:06;100209.69;;;3.67;89.12
42411;BME280;28056;51.112;0.984;2023-02-22T07:48:33;100210.99;;;4.11;88.72
42411;BME280;28056;51.112;0.984;2023-02-22T07:51:00;100215.55;;;4.32;87.66
42411;BME280;28056;51.112;0.984;2023-02-22T07:53:30;100216.73;;;4.83;86.34
42411;BME280;28056;51.112;0.984;2023-02-22T07:55:58;100216.43;;;4.57;85.66
42411;BME280;28056;51.112;0.984;2023-02-22T07:58:28;100216.83;;;4.09;87.85
42411;BME280;28056;51.112;0.984;2023-02-22T08:00:56;100220.44;;;3.85;89.16
42411;BME280;28056;51.112;0.984;2023-02-22T08:03:25;100223.50;;;3.53;90.08
42411;BME280;28056;51.112;0.984;2023-02-22T08:05:55;100225.10;;;4.22;89.22
42411;BME280;28056;51.112;0.984;2023-02-22T08:08:23;100222.24;;;4.96;86.10
42411;BME280;28056;51.112;0.984;2023-02-22T08:10:51;100213.85;;;4.28;86.44
42411;BME280;28056;51.112;0.984;2023-02-22T08:13:19;100213.31;;;4.33;85.15
42411;BME280;28056;51.112;0.984;2023-02-22T08:15:49;100213.62;;;4.35;86.48
42411;BME280;28056;51.112;0.984;2023-02-22T08:18:18;100214.38;;;4.45;85.44
42411;BME280;28056;51.112;0.984;2023-02-22T08:20:48;100218.53;;;4.45;85.35
42411;BME280;28056;51.112;0.984;2023-02-22T08:23:17;100214.09;;;4.39;86.43
42411;BME280;28056;51.112;0.984;2023-02-22T08:25:45;100213.04;;;4.42;85.67
42411;BME280;28056;51.112;0.984;2023-02-22T08:28:15;100214.50;;;4.53;86.10
42411;BME280;28056;51.112;0.984;2023-02-22T08:30:43;100216.85;;;4.54;85.90
42411;BME280;28056;51.112;0.984;2023-02-22T08:33:10;100212.91;;;5.15;83.45
42411;BME280;28056;51.112;0.984;2023-02-22T08:35:38;100206.56;;;5.33;84.02
42411;BME280;28056;51.112;0.984;2023-02-22T08:38:06;100208.35;;;5.05;84.02
42411;BME280;28056;51.112;0.984;2023-02-22T08:40:35;100210.08;;;5.01;85.51
42411;BME280;28056;51.112;0.984;2023-02-22T08:43:03;100208.60;;;6.03;81.47
42411;BME280;28056;51.112;0.984;2023-02-22T08:45:30;100213.98;;;6.63;80.18
42411;BME280;28056;51.112;0.984;2023-02-22T08:47:58;100213.50;;;5.84;79.92
42411;BME280;28056;51.112;0.984;2023-02-22T08:50:27;100220.70;;;5.39;82.31
42411;BME280;28056;51.112;0.984;2023-02-22T08:52:57;100218.47;;;4.81;84.52
42411;BME280;28056;51.112;0.984;2023-02-22T08:55:27;100219.64;;;4.61;85.65
42411;BME280;28056;51.112;0.984;2023-02-22T08:57:54;100216.06;;;4.53;87.89
42411;BME280;28056;51.112;0.984;2023-02-22T09:00:22;100214.81;;;4.21;88.20
42411;BME280;28056;51.112;0.984;2023-02-22T09:02:50;100210.61;;;3.95;89.48
42411;BME280;28056;51.112;0.984;2023-02-22T09:05:18;100213.06;;;4.22;90.54
42411;BME280;28056;51.112;0.984;2023-02-22T09:07:46;100216.42;;;4.20;89.99
42411;BME280;28056;51.112;0.984;2023-02-22T09:10:17;100227.30;;;4.62;88.79
42411;BME280;28056;51.112;0.984;2023-02-22T09:12:44;100221.97;;;4.43;88.61
42411;BME280;28056;51.112;0.984;2023-02-22T09:15:12;100223.67;;;4.35;90.12
42411;BME280;28056;51.112;0.984;2023-02-22T09:17:39;100225.19;;;4.92;89.51
42411;BME280;28056;51.112;0.984;2023-02-22T09:20:08;100223.58;;;4.87;87.49
42411;BME280;28056;51.112;0.984;2023-02-22T09:22:36;100223.68;;;5.35;86.67
42411;BME280;28056;51.112;0.984;2023-02-22T09:25:04;100223.75;;;6.06;84.23
42411;BME280;28056;51.112;0.984;2023-02-22T09:27:32;100225.53;;;5.38;84.60
42411;BME280;28056;51.112;0.984;2023-02-22T09:30:00;100225.54;;;5.48;83.70
42411;BME280;28056;51.112;0.984;2023-02-22T09:32:28;100225.22;;;6.51;81.43
42411;BME280;28056;51.112;0.984;2023-02-22T09:34:56;100229.11;;;4.98;82.74
42411;BME280;28056;51.112;0.984;2023-02-22T09:37:24;100232.58;;;5.71;83.11
42411;BME280;28056;51.112;0.984;2023-02-22T09:39:51;100239.45;;;4.71;86.02
42411;BME280;28056;51.112;0.984;2023-02-22T09:42:26;100245.55;;;4.91;86.59
42411;BME280;28056;51.112;0.984;2023-02-22T09:45:00;100246.71;;;6.46;81.03
42411;BME280;28056;51.112;0.984;2023-02-22T09:47:36;100245.76;;;5.78;81.96
42411;BME280;28056;51.112;0.984;2023-02-22T09:50:06;100249.86;;;6.15;81.48
42411;BME280;28056;51.112;0.984;2023-02-22T09:52:40;100247.14;;;6.63;79.33
42411;BME280;28056;51.112;0.984;2023-02-22T09:55:23;100250.04;;;6.00;82.78
42411;BME280;28056;51.112;0.984;2023-02-22T09:57:53;100252.07;;;5.63;81.24
42411;BME280;28056;51.112;0.984;2023-02-22T10:00:28;100248.33;;;5.14;84.48
42411;BME280;28056;51.112;0.984;2023-02-22T10:03:04;100247.83;;;5.02;84.96
42411;BME280;28056;51.112;0.984;2023-02-22T10:05:40;100249.02;;;6.46;82.65
42411;BME280;28056;51.112;0.984;2023-02-22T10:08:12;100250.06;;;6.09;81.98
42411;BME280;28056;51.112;0.984;2023-02-22T10:10:42;100247.87;;;5.80;83.80
42411;BME280;28056;51.112;0.984;2023-02-22T10:13:15;100248.85;;;6.84;81.65
42411;BME280;28056;51.112;0.984;2023-02-22T10:15:50;100247.33;;;6.90;80.37
42411;BME280;28056;51.112;0.984;2023-02-22T10:18:33;100247.23;;;7.38;78.07
42411;BME280;28056;51.112;0.984;2023-02-22T10:21:11;100247.79;;;6.57;79.77
42411;BME280;28056;51.112;0.984;2023-02-22T10:23:49;100247.82;;;5.62;85.15
42411;BME280;28056;51.112;0.984;2023-02-22T10:26:21;100246.66;;;5.77;86.87
42411;BME280;28056;51.112;0.984;2023-02-22T10:28:53;100242.86;;;5.84;85.56
42411;BME280;28056;51.112;0.984;2023-02-22T10:31:27;100238.43;;;6.12;85.85
42411;BME280;28056;51.112;0.984;2023-02-22T10:34:00;100243.86;;;5.47;86.75
42411;BME280;28056;51.112;0.984;2023-02-22T10:36:29;100241.54;;;6.57;84.09
42411;BME280;28056;51.112;0.984;2023-02-22T10:38:59;100236.16;;;6.28;83.16
42411;BME280;28056;51.112;0.984;2023-02-22T10:41:30;100230.82;;;7.09;81.17
42411;BME280;28056;51.112;0.984;2023-02-22T10:44:00;100230.77;;;6.13;84.58
42411;BME280;28056;51.112;0.984;2023-02-22T10:46:29;100229.07;;;6.66;83.12
42411;BME280;28056;51.112;0.984;2023-02-22T10:49:04;100229.33;;;6.45;84.63
42411;BME280;28056;51.112;0.984;2023-02-22T10:51:32;100232.10;;;5.96;85.18
42411;BME280;28056;51.112;0.984;2023-02-22T10:54:21;100234.28;;;6.13;85.07
42411;BME280;28056;51.112;0.984;2023-02-22T10:56:52;100235.24;;;6.60;83.12
42411;BME280;28056;51.112;0.984;2023-02-22T10:59:31;100232.51;;;7.07;81.86
42411;BME280;28056;51.112;0.984;2023-02-22T11:02:00;100229.94;;;6.09;85.90
42411;BME280;28056;51.112;0.984;2023-02-22T11:04:45;100226.18;;;6.47;84.07
42411;BME280;28056;51.112;0.984;2023-02-22T11:07:20;100222.86;;;7.05;83.09
42411;BME280;28056;51.112;0.984;2023-02-22T11:09:51;100221.99;;;6.72;85.42
42411;BME280;28056;51.112;0.984;2023-02-22T11:12:24;100221.40;;;7.85;79.71
42411;BME280;28056;51.112;0.984;2023-02-22T11:14:53;100217.40;;;7.60;80.83
42411;BME280;28056;51.112;0.984;2023-02-22T11:17:28;100221.34;;;7.57;80.14
42411;BME280;28056;51.112;0.984;2023-02-22T11:19:57;100223.92;;;7.14;79.72
42411;BME280;28056;51.112;0.984;2023-02-22T11:22:28;100225.21;;;6.11;84.07
42411;BME280;28056;51.112;0.984;2023-02-22T11:25:00;100225.07;;;6.49;83.64
42411;BME280;28056;51.112;0.984;2023-02-22T11:27:33;100224.93;;;6.29;84.83
42411;BME280;28056;51.112;0.984;2023-02-22T11:30:19;100222.16;;;6.07;84.07
42411;BME280;28056;51.112;0.984;2023-02-22T11:32:50;100215.87;;;5.96;84.73
42411;BME280;28056;51.112;0.984;2023-02-22T11:35:30;100212.26;;;6.00;84.53
42411;BME280;28056;51.112;0.984;2023-02-22T11:38:25;100211.74;;;7.22;81.18
42411;BME280;28056;51.112;0.984;2023-02-22T11:41:27;100209.87;;;7.27;77.92
42411;BME280;28056;51.112;0.984;2023-02-22T11:44:12;100213.33;;;6.84;82.34
42411;BME280;28056;51.112;0.984;2023-02-22T11:46:41;100216.81;;;6.25;82.15
42411;BME280;28056;51.112;0.984;2023-02-22T11:49:11;100218.28;;;6.22;81.82
42411;BME280;28056;51.112;0.984;2023-02-22T11:51:48;100211.09;;;6.26;83.13
42411;BME280;28056;51.112;0.984;2023-02-22T11:54:28;100210.46;;;6.18;83.99
42411;BME280;28056;51.112;0.984;2023-02-22T11:57:09;100205.72;;;6.04;83.84
42411;BME280;28056;51.112;0.984;2023-02-22T11:59:50;100200.20;;;5.84;85.54
42411;BME280;28056;51.112;0.984;2023-02-22T12:02:30;100200.64;;;5.94;86.74
42411;BME280;28056;51.112;0.984;2023-02-22T12:05:27;100201.65;;;5.65;86.90
42411;BME280;28056;51.112;0.984;2023-02-22T12:08:08;100201.29;;;6.53;84.55
42411;BME280;28056;51.112;0.984;2023-02-22T12:10:46;100199.88;;;6.24;86.72
42411;BME280;28056;51.112;0.984;2023-02-22T12:13:29;100197.17;;;6.28;84.22
42411;BME280;28056;51.112;0.984;2023-02-22T12:16:06;100188.45;;;6.46;83.73
42411;BME280;28056;51.112;0.984;2023-02-22T12:18:45;100189.87;;;6.98;81.73
42411;BME280;28056;51.112;0.984;2023-02-22T12:21:20;100191.47;;;7.77;78.70
42411;BME280;28056;51.112;0.984;2023-02-22T12:23:52;100193.91;;;8.21;73.59
42411;BME280;28056;51.112;0.984;2023-02-22T12:26:25;100192.86;;;6.67;79.30
42411;BME280;28056;51.112;0.984;2023-02-22T12:28:58;100191.82;;;8.32;76.11
42411;BME280;28056;51.112;0.984;2023-02-22T12:31:31;100193.72;;;6.88;77.62
42411;BME280;28056;51.112;0.984;2023-02-22T12:34:07;100197.80;;;6.81;81.00
42411;BME280;28056;51.112;0.984;2023-02-22T12:36:40;100200.18;;;6.51;80.20
42411;BME280;28056;51.112;0.984;2023-02-22T12:39:31;100197.72;;;7.62;77.59
42411;BME280;28056;51.112;0.984;2023-02-22T12:42:01;100199.08;;;7.59;75.37
42411;BME280;28056;51.112;0.984;2023-02-22T12:44:33;100199.76;;;6.77;76.52
42411;BME280;28056;51.112;0.984;2023-02-22T12:47:01;100202.76;;;6.76;75.98
42411;BME280;28056;51.112;0.984;2023-02-22T12:49:37;100203.15;;;6.80;78.03
42411;BME280;28056;51.112;0.984;2023-02-22T12:52:12;100201.54;;;6.64;78.16
42411;BME280;28056;51.112;0.984;2023-02-22T12:54:46;100202.68;;;6.18;80.19
42411;BME280;28056;51.112;0.984;2023-02-22T12:57:23;100194.97;;;5.83;80.09
42411;BME280;28056;51.112;0.984;2023-02-22T12:59:55;100195.91;;;6.15;80.17
42411;BME280;28056;51.112;0.984;2023-02-22T13:02:28;100191.09;;;5.68;81.35
42411;BME280;28056;51.112;0.984;2023-02-22T13:04:57;100192.48;;;5.58;82.11
42411;BME280;28056;51.112;0.984;2023-02-22T13:07:37;100194.57;;;5.86;82.45
42411;BME280;28056;51.112;0.984;2023-02-22T13:10:22;100196.34;;;6.13;82.93
42411;BME280;28056;51.112;0.984;2023-02-22T13:12:58;100199.87;;;6.45;79.44
42411;BME280;28056;51.112;0.984;2023-02-22T13:15:33;100204.31;;;5.90;81.03
42411;BME280;28056;51.112;0.984;2023-02-22T13:18:09;100214.10;;;6.06;82.21
42411;BME280;28056;51.112;0.984;2023-02-22T13:20:43;100210.05;;;5.94;80.76